Time;durP1;ratioP1;P1;durP2;ratioP2;P2;SDS_P1;SDS_P2;PMS_P1;PMS_P2;Temp;Humidity;BMP_temperature;BMP_pressure;BME280_temperature;BME280_humidity;BME280_pressure;Samples;Min_cycle;Max_cycle;Signal;HPM_P1;HPM_P2
2022/10/18 00:00:41;;;;;;;6.30;2.67;;;10.10;99.90;;;;;;5028927;28;20025;-53
2022/10/18 00:03:07;;;;;;;6.20;3.00;;;10.00;99.90;;;;;;5032010;28;20025;-54
2022/10/18 00:05:33;;;;;;;7.95;2.55;;;10.00;99.90;;;;;;5032558;28;20126;-57
2022/10/18 00:07:58;;;;;;;7.10;2.92;;;10.00;99.90;;;;;;5032859;28;20473;-51
2022/10/18 00:10:24;;;;;;;6.47;2.80;;;10.00;99.90;;;;;;5032225;28;20591;-53
2022/10/18 00:12:50;;;;;;;7.43;2.72;;;9.90;99.90;;;;;;5032629;28;20021;-53
2022/10/18 00:15:16;;;;;;;10.68;3.10;;;9.90;99.90;;;;;;5032471;28;20013;-57
2022/10/18 00:17:42;;;;;;;5.15;2.30;;;9.90;99.90;;;;;;5031792;28;20102;-53
2022/10/18 00:20:08;;;;;;;5.13;2.40;;;9.90;99.90;;;;;;5032526;28;20435;-55
2022/10/18 00:22:38;;;;;;;6.13;2.35;;;9.90;99.90;;;;;;5032747;28;20052;-52
2022/10/18 00:25:05;;;;;;;8.30;2.28;;;9.90;99.90;;;;;;5032627;28;20046;-51
2022/10/18 00:27:32;;;;;;;8.38;2.50;;;9.90;99.90;;;;;;5029290;28;20034;-52
2022/10/18 00:29:57;;;;;;;5.90;1.83;;;9.90;99.90;;;;;;5031645;28;20032;-54
2022/10/18 00:32:23;;;;;;;10.05;1.95;;;9.90;99.90;;;;;;5033313;28;20030;-46
2022/10/18 00:34:49;;;;;;;6.00;2.40;;;9.90;99.90;;;;;;5032619;28;20049;-48
2022/10/18 00:37:15;;;;;;;8.75;2.05;;;9.90;99.90;;;;;;5033371;28;20111;-48
2022/10/18 00:39:40;;;;;;;5.18;2.05;;;9.80;99.90;;;;;;5032907;28;20388;-50
2022/10/18 00:42:06;;;;;;;5.93;3.00;;;9.80;99.90;;;;;;5033229;28;20036;-50
2022/10/18 00:44:32;;;;;;;7.47;2.03;;;9.70;99.90;;;;;;5032837;28;21398;-46
2022/10/18 00:47:07;;;;;;;6.22;2.13;;;9.70;99.90;;;;;;5032933;28;20033;-51
2022/10/18 00:49:40;;;;;;;6.85;2.30;;;9.70;99.90;;;;;;5032660;28;20488;-47
2022/10/18 00:52:19;;;;;;;7.35;1.80;;;9.60;99.90;;;;;;5031561;28;20034;-49
2022/10/18 00:54:47;;;;;;;4.55;2.00;;;9.50;99.90;;;;;;5032479;28;20030;-52
2022/10/18 00:57:13;;;;;;;4.07;1.60;;;9.50;99.90;;;;;;5032755;28;20017;-54
2022/10/18 00:59:40;;;;;;;3.45;1.70;;;9.60;99.90;;;;;;5031419;28;20036;-51
2022/10/18 01:02:06;;;;;;;7.25;3.30;;;9.60;99.90;;;;;;5031322;28;20480;-47
2022/10/18 01:04:32;;;;;;;3.75;2.05;;;9.60;99.90;;;;;;5027475;28;20393;-48
2022/10/18 01:07:09;;;;;;;4.20;1.90;;;9.60;99.90;;;;;;5032774;28;20029;-51
2022/10/18 01:09:47;;;;;;;5.13;1.77;;;9.60;99.90;;;;;;5032557;28;20037;-50
2022/10/18 01:12:37;;;;;;;6.75;1.95;;;9.60;99.90;;;;;;5032588;28;20405;-46
2022/10/18 01:15:22;;;;;;;5.93;1.70;;;9.60;99.90;;;;;;5032650;28;20029;-49
2022/10/18 01:18:25;;;;;;;6.50;2.05;;;9.60;99.90;;;;;;5032817;28;20060;-50
2022/10/18 01:21:09;;;;;;;6.22;1.80;;;9.60;99.90;;;;;;5021647;28;20079;-53
2022/10/18 01:23:56;;;;;;;4.13;1.95;;;9.50;99.90;;;;;;5032705;28;20021;-49
2022/10/18 01:26:49;;;;;;;5.47;1.88;;;9.50;99.90;;;;;;5032707;28;20040;-54
2022/10/18 01:29:49;;;;;;;5.60;1.80;;;9.50;99.90;;;;;;5020402;28;20477;-49
2022/10/18 01:32:30;;;;;;;3.92;1.50;;;9.50;99.90;;;;;;5032739;28;20033;-53
2022/10/18 01:35:02;;;;;;;4.10;1.60;;;9.50;99.90;;;;;;5020171;28;20484;-48
2022/10/18 01:37:30;;;;;;;3.63;1.55;;;9.50;99.90;;;;;;5032271;28;20045;-51
2022/10/18 01:39:58;;;;;;;8.27;1.50;;;9.50;99.90;;;;;;5032366;28;20022;-49
2022/10/18 01:42:24;;;;;;;6.57;1.60;;;9.50;99.90;;;;;;5032447;28;20083;-51
2022/10/18 01:44:52;;;;;;;3.47;1.52;;;9.50;99.90;;;;;;5014515;28;20030;-51
2022/10/18 01:47:19;;;;;;;3.30;1.48;;;9.50;99.90;;;;;;5032379;28;20060;-56
2022/10/18 01:49:44;;;;;;;4.60;1.60;;;9.50;99.90;;;;;;5032070;28;20088;-49
2022/10/18 01:52:14;;;;;;;2.78;1.38;;;9.50;99.90;;;;;;5031922;28;20128;-49
2022/10/18 01:54:47;;;;;;;5.78;1.30;;;9.50;99.90;;;;;;5031915;28;20022;-48
2022/10/18 01:57:27;;;;;;;5.30;1.55;;;9.50;99.90;;;;;;5031788;28;20025;-53
2022/10/18 02:00:00;;;;;;;5.38;1.98;;;9.50;99.90;;;;;;5031984;28;20085;-49
2022/10/18 02:02:44;;;;;;;4.57;1.48;;;9.50;99.90;;;;;;5031850;28;20120;-53
2022/10/18 02:05:39;;;;;;;4.53;1.35;;;9.50;99.90;;;;;;5031787;28;20022;-48
2022/10/18 02:08:12;;;;;;;5.03;1.40;;;9.50;99.90;;;;;;5031785;28;20099;-52
2022/10/18 02:10:42;;;;;;;3.13;1.33;;;9.50;99.90;;;;;;5031795;28;20057;-47
2022/10/18 02:13:11;;;;;;;5.57;1.40;;;9.40;99.90;;;;;;5031590;28;20025;-54
2022/10/18 02:15:41;;;;;;;3.65;1.50;;;9.40;99.90;;;;;;5031798;28;20061;-52
2022/10/18 02:18:14;;;;;;;2.97;1.30;;;9.40;99.90;;;;;;5031891;28;20025;-51
2022/10/18 02:20:41;;;;;;;4.07;1.50;;;9.40;99.90;;;;;;5031658;28;20025;-51
2022/10/18 02:23:08;;;;;;;5.13;1.58;;;9.30;99.90;;;;;;5031736;28;20102;-48
2022/10/18 02:25:35;;;;;;;5.90;1.60;;;9.40;99.90;;;;;;5031310;28;20050;-49
2022/10/18 02:28:02;;;;;;;4.43;1.30;;;9.30;99.90;;;;;;5031028;28;20029;-48
2022/10/18 02:30:39;;;;;;;5.25;1.30;;;9.30;99.90;;;;;;5030808;28;20052;-53
2022/10/18 02:33:33;;;;;;;6.07;1.42;;;9.30;99.90;;;;;;5031232;28;20042;-51
2022/10/18 02:36:24;;;;;;;4.25;1.27;;;9.20;99.90;;;;;;5031256;28;20021;-54
2022/10/18 02:38:55;;;;;;;5.88;1.20;;;9.20;99.90;;;;;;5031293;28;20480;-56
2022/10/18 02:41:22;;;;;;;5.82;1.92;;;9.20;99.90;;;;;;5031377;28;20033;-52
2022/10/18 02:43:48;;;;;;;11.85;1.60;;;9.20;99.90;;;;;;5031116;28;20020;-50
2022/10/18 02:46:14;;;;;;;4.82;1.45;;;9.20;99.90;;;;;;5031253;28;20029;-48
2022/10/18 02:48:39;;;;;;;3.90;1.30;;;9.10;99.90;;;;;;5031176;28;20033;-49
2022/10/18 02:51:05;;;;;;;2.78;1.30;;;9.10;99.90;;;;;;5031316;28;20075;-55
2022/10/18 02:53:30;;;;;;;7.82;1.90;;;9.10;99.90;;;;;;5030808;28;20033;-53
2022/10/18 02:55:56;;;;;;;5.40;1.40;;;9.10;99.90;;;;;;5031171;28;20476;-51
2022/10/18 02:58:22;;;;;;;4.00;1.30;;;9.10;99.90;;;;;;5031098;28;20029;-54
2022/10/18 03:00:49;;;;;;;4.18;1.38;;;9.10;99.90;;;;;;5030789;28;20370;-50
2022/10/18 03:03:15;;;;;;;2.72;1.27;;;9.00;99.90;;;;;;5031176;28;20036;-51
2022/10/18 03:05:40;;;;;;;4.47;1.38;;;9.00;99.90;;;;;;5030862;28;20021;-55
2022/10/18 03:08:06;;;;;;;2.97;1.50;;;9.00;99.90;;;;;;5030763;28;20097;-47
2022/10/18 03:10:32;;;;;;;3.25;1.10;;;9.00;99.90;;;;;;5030836;28;20036;-48
2022/10/18 03:12:57;;;;;;;5.80;1.20;;;9.00;99.90;;;;;;5030825;28;20029;-47
2022/10/18 03:15:23;;;;;;;2.88;1.00;;;8.90;99.90;;;;;;5030773;28;20034;-48
2022/10/18 03:17:49;;;;;;;4.97;1.10;;;8.90;99.90;;;;;;5030742;28;20033;-47
2022/10/18 03:20:14;;;;;;;5.45;1.60;;;8.90;99.90;;;;;;5030976;28;20022;-48
2022/10/18 03:22:40;;;;;;;5.03;1.02;;;8.90;99.90;;;;;;5030673;28;20053;-47
2022/10/18 03:25:06;;;;;;;5.25;1.00;;;8.90;99.90;;;;;;5030735;28;20077;-48
2022/10/18 03:27:31;;;;;;;5.35;1.42;;;8.90;99.90;;;;;;5030901;28;20025;-47
2022/10/18 03:29:58;;;;;;;11.80;1.30;;;8.90;99.90;;;;;;5030720;28;20026;-46
2022/10/18 03:32:23;;;;;;;6.28;1.40;;;8.80;99.90;;;;;;5030718;28;20033;-50
2022/10/18 03:34:49;;;;;;;6.13;1.73;;;8.80;99.90;;;;;;5030960;28;20022;-46
2022/10/18 03:37:14;;;;;;;4.93;1.30;;;8.90;99.90;;;;;;5030697;28;20487;-47
2022/10/18 03:39:40;;;;;;;8.90;1.48;;;8.80;99.90;;;;;;5031103;28;20069;-47
2022/10/18 03:42:06;;;;;;;3.90;1.10;;;8.80;99.90;;;;;;5030313;28;20034;-51
2022/10/18 03:44:31;;;;;;;8.18;1.50;;;8.80;99.90;;;;;;5030600;28;20163;-51
2022/10/18 03:46:57;;;;;;;7.45;1.85;;;8.80;99.90;;;;;;5029628;28;20455;-52
2022/10/18 03:49:22;;;;;;;3.03;1.00;;;8.80;99.90;;;;;;5027976;28;20460;-48
2022/10/18 03:51:48;;;;;;;1.75;0.95;;;8.70;99.90;;;;;;5027925;28;20037;-51
2022/10/18 03:54:13;;;;;;;3.97;1.20;;;8.60;99.90;;;;;;5029998;28;20030;-50
2022/10/18 03:56:39;;;;;;;6.45;0.85;;;8.50;99.90;;;;;;5030306;28;20048;-47
2022/10/18 03:59:05;;;;;;;3.05;1.00;;;8.50;99.90;;;;;;5030374;28;20021;-55
2022/10/18 04:01:30;;;;;;;4.43;1.20;;;8.40;99.90;;;;;;5030351;28;20060;-51
2022/10/18 04:03:56;;;;;;;3.70;1.35;;;8.40;99.90;;;;;;5030367;28;20040;-51
2022/10/18 04:06:21;;;;;;;4.78;1.48;;;8.30;99.90;;;;;;5029843;28;20026;-51
2022/10/18 04:08:47;;;;;;;3.75;1.23;;;8.20;99.90;;;;;;5030155;28;20037;-47
2022/10/18 04:11:13;;;;;;;3.45;1.45;;;8.20;99.90;;;;;;5029746;28;20025;-50
2022/10/18 04:13:38;;;;;;;6.00;1.50;;;8.10;99.90;;;;;;5030244;28;20041;-51
2022/10/18 04:16:04;;;;;;;3.60;1.30;;;8.10;99.90;;;;;;5030046;28;20017;-48
2022/10/18 04:18:30;;;;;;;3.95;1.45;;;8.10;99.90;;;;;;5029807;28;20032;-48
2022/10/18 04:20:55;;;;;;;4.18;1.15;;;8.20;99.90;;;;;;5032738;28;20023;-49
2022/10/18 04:23:21;;;;;;;4.63;1.20;;;8.10;99.90;;;;;;5032415;28;20105;-51
2022/10/18 04:25:47;;;;;;;3.05;1.30;;;7.90;99.90;;;;;;5033494;28;20037;-50
2022/10/18 04:28:12;;;;;;;3.72;1.10;;;7.80;99.90;;;;;;5033745;28;20147;-56
2022/10/18 04:30:38;;;;;;;5.07;1.50;;;7.80;99.90;;;;;;5033437;28;20365;-49
2022/10/18 04:33:03;;;;;;;3.33;1.30;;;7.80;99.90;;;;;;5033321;28;20083;-50
2022/10/18 04:35:29;;;;;;;5.05;1.30;;;7.90;99.90;;;;;;5033827;28;20032;-50
2022/10/18 04:37:55;;;;;;;4.93;1.33;;;7.90;99.90;;;;;;5033163;28;20037;-49
2022/10/18 04:40:20;;;;;;;5.00;1.20;;;7.90;99.90;;;;;;5033555;28;20033;-49
2022/10/18 04:42:46;;;;;;;8.70;1.30;;;7.90;99.90;;;;;;5033319;28;20105;-53
2022/10/18 04:45:12;;;;;;;5.38;1.30;;;7.90;99.90;;;;;;5033304;28;20017;-49
2022/10/18 04:47:38;;;;;;;2.85;1.40;;;7.90;99.90;;;;;;5033501;28;20034;-48
2022/10/18 04:50:04;;;;;;;5.28;1.50;;;7.90;99.90;;;;;;5033362;28;20393;-51
2022/10/18 04:52:30;;;;;;;8.82;1.35;;;7.90;99.90;;;;;;5033298;28;20040;-54
2022/10/18 04:54:56;;;;;;;3.63;1.40;;;7.90;99.90;;;;;;5015542;28;20025;-53
2022/10/18 04:57:21;;;;;;;4.50;1.20;;;7.90;99.90;;;;;;5033296;28;20376;-55
2022/10/18 04:59:47;;;;;;;6.93;1.75;;;7.90;99.90;;;;;;5033074;28;20018;-53
2022/10/18 05:02:12;;;;;;;3.28;1.15;;;7.80;99.90;;;;;;5033242;28;20107;-49
2022/10/18 05:04:38;;;;;;;4.65;1.05;;;7.80;99.90;;;;;;5033152;28;20498;-50
2022/10/18 05:07:05;;;;;;;3.58;1.38;;;7.70;99.90;;;;;;5032905;28;20041;-54
2022/10/18 05:09:31;;;;;;;7.20;1.42;;;7.80;99.90;;;;;;5033071;28;20029;-56
2022/10/18 05:11:57;;;;;;;5.55;1.52;;;7.80;99.90;;;;;;5032889;28;20116;-54
2022/10/18 05:14:22;;;;;;;4.55;1.25;;;7.80;99.90;;;;;;5033038;28;20105;-54
2022/10/18 05:16:48;;;;;;;8.93;1.30;;;7.90;99.90;;;;;;5032934;28;20124;-51
2022/10/18 05:19:14;;;;;;;5.90;1.58;;;7.80;99.90;;;;;;5032727;28;20022;-53
2022/10/18 05:21:39;;;;;;;2.28;1.20;;;7.90;99.90;;;;;;5032796;28;20037;-50
2022/10/18 05:24:05;;;;;;;5.28;1.00;;;7.90;99.90;;;;;;5032572;28;20022;-53
2022/10/18 05:26:31;;;;;;;1.92;1.00;;;7.90;99.90;;;;;;5032745;28;20455;-55
2022/10/18 05:28:56;;;;;;;4.43;1.20;;;7.80;99.90;;;;;;5032478;28;20097;-50
2022/10/18 05:31:22;;;;;;;2.47;1.10;;;7.70;99.90;;;;;;5013663;28;20472;-53
2022/10/18 05:33:47;;;;;;;2.78;1.00;;;7.60;99.90;;;;;;5032606;28;20040;-50
2022/10/18 05:36:13;;;;;;;5.07;1.17;;;7.50;99.90;;;;;;5032439;28;20439;-53
2022/10/18 05:38:44;;;;;;;2.53;1.00;;;7.40;99.90;;;;;;5032462;28;20026;-48
2022/10/18 05:41:10;;;;;;;3.33;1.15;;;7.30;99.90;;;;;;5032445;28;20083;-49
2022/10/18 05:43:36;;;;;;;4.30;1.25;;;7.30;99.90;;;;;;5032268;28;20025;-49
2022/10/18 05:46:03;;;;;;;4.55;1.45;;;7.20;99.90;;;;;;5032470;28;20156;-54
2022/10/18 05:48:28;;;;;;;3.28;1.00;;;7.20;99.90;;;;;;5032193;28;20108;-49
2022/10/18 05:50:58;;;;;;;3.28;1.20;;;7.30;99.90;;;;;;5032083;28;20116;-55
2022/10/18 05:53:23;;;;;;;2.42;1.20;;;7.30;99.90;;;;;;5032092;28;20021;-50
2022/10/18 05:55:49;;;;;;;3.33;1.40;;;7.30;99.90;;;;;;5032061;28;20033;-52
2022/10/18 05:58:14;;;;;;;3.03;1.13;;;7.30;99.90;;;;;;5014459;28;20392;-52
2022/10/18 06:00:40;;;;;;;5.55;1.38;;;7.20;99.90;;;;;;5032009;28;20036;-47
2022/10/18 06:03:06;;;;;;;4.88;1.52;;;7.30;99.90;;;;;;5032081;28;20021;-48
2022/10/18 06:05:32;;;;;;;4.70;1.23;;;7.30;99.90;;;;;;5031802;28;20022;-52
2022/10/18 06:07:57;;;;;;;3.97;1.20;;;7.30;99.90;;;;;;5031873;28;20059;-50
2022/10/18 06:10:23;;;;;;;9.32;1.70;;;7.40;99.90;;;;;;5031747;28;20036;-52
2022/10/18 06:12:49;;;;;;;4.20;1.40;;;7.40;99.90;;;;;;5031761;28;20078;-56
2022/10/18 06:15:14;;;;;;;4.35;1.55;;;7.40;99.90;;;;;;5031825;28;20033;-52
2022/10/18 06:17:40;;;;;;;4.13;1.50;;;7.40;99.90;;;;;;5031652;28;20460;-48
2022/10/18 06:20:07;;;;;;;7.85;1.70;;;7.40;99.90;;;;;;5031850;28;20380;-47
2022/10/18 06:22:32;;;;;;;6.07;1.80;;;7.40;99.90;;;;;;5031534;28;20029;-47
2022/10/18 06:24:58;;;;;;;9.43;1.50;;;7.40;99.90;;;;;;5031500;28;20558;-46
2022/10/18 06:27:24;;;;;;;5.10;1.30;;;7.30;99.90;;;;;;5013766;28;20486;-47
2022/10/18 06:29:49;;;;;;;4.18;1.35;;;7.30;99.90;;;;;;5031887;28;20033;-47
2022/10/18 06:32:15;;;;;;;3.08;1.25;;;7.30;99.90;;;;;;5032075;28;20500;-51
2022/10/18 06:34:40;;;;;;;5.72;1.40;;;7.30;99.90;;;;;;5031740;28;20021;-47
2022/10/18 06:37:06;;;;;;;5.10;1.60;;;7.20;99.90;;;;;;5031525;28;20370;-50
2022/10/18 06:39:32;;;;;;;6.80;1.95;;;7.20;99.90;;;;;;5031329;28;20036;-49
2022/10/18 06:41:58;;;;;;;2.40;1.23;;;7.20;99.90;;;;;;5030887;28;20014;-52
2022/10/18 06:44:24;;;;;;;3.70;1.73;;;7.20;99.90;;;;;;5031327;28;20032;-54
2022/10/18 06:46:52;;;;;;;4.38;1.83;;;7.20;99.90;;;;;;5030945;28;20386;-54
2022/10/18 06:49:18;;;;;;;3.20;1.80;;;7.10;99.90;;;;;;5031292;28;20067;-52
2022/10/18 06:51:45;;;;;;;7.15;2.05;;;7.20;99.90;;;;;;5030958;28;20155;-51
2022/10/18 06:54:11;;;;;;;4.68;2.00;;;7.20;99.90;;;;;;5030963;28;20469;-54
2022/10/18 06:56:37;;;;;;;3.67;1.98;;;7.30;99.90;;;;;;5030985;28;20109;-52
2022/10/18 06:59:03;;;;;;;9.45;3.03;;;7.30;99.90;;;;;;5031073;28;20097;-48
2022/10/18 07:01:29;;;;;;;7.88;2.72;;;7.40;99.90;;;;;;5031016;28;20026;-50
2022/10/18 07:03:55;;;;;;;7.35;2.20;;;7.50;99.90;;;;;;5030843;28;20079;-48
2022/10/18 07:06:22;;;;;;;6.78;2.33;;;7.60;99.90;;;;;;5031052;28;20032;-54
2022/10/18 07:08:49;;;;;;;5.68;2.40;;;7.70;99.90;;;;;;5030663;28;20021;-51
2022/10/18 07:11:17;;;;;;;4.85;2.30;;;7.80;99.90;;;;;;5030880;28;20104;-55
2022/10/18 07:13:44;;;;;;;7.20;4.20;;;7.80;99.90;;;;;;5030838;28;20030;-50
2022/10/18 07:16:13;;;;;;;5.65;3.55;;;7.80;99.90;;;;;;5030878;28;20075;-50
2022/10/18 07:18:41;;;;;;;7.72;2.88;;;7.90;99.90;;;;;;5031029;28;20094;-50
2022/10/18 07:21:10;;;;;;;7.03;2.65;;;8.00;99.90;;;;;;5030547;28;20492;-51
2022/10/18 07:23:37;;;;;;;7.63;2.60;;;8.10;99.90;;;;;;5030810;28;20929;-47
2022/10/18 07:26:16;;;;;;;5.18;2.50;;;8.10;99.90;;;;;;5030458;28;20083;-47
2022/10/18 07:28:42;;;;;;;8.67;2.57;;;8.20;99.90;;;;;;5030541;28;20021;-48
2022/10/18 07:31:09;;;;;;;6.68;1.77;;;8.30;99.90;;;;;;5030486;28;20394;-47
2022/10/18 07:33:36;;;;;;;3.80;2.28;;;8.40;99.90;;;;;;5030430;28;20033;-51
2022/10/18 07:36:04;;;;;;;6.93;2.00;;;8.50;99.90;;;;;;5030149;28;20045;-57
2022/10/18 07:38:30;;;;;;;6.15;1.67;;;8.60;99.90;;;;;;5030257;28;20024;-54
2022/10/18 07:40:57;;;;;;;4.95;1.90;;;8.70;99.90;;;;;;5030603;28;20104;-47
2022/10/18 07:43:23;;;;;;;5.90;1.40;;;8.70;99.90;;;;;;5030376;28;20021;-49
2022/10/18 07:45:53;;;;;;;5.43;1.60;;;8.90;99.90;;;;;;5030490;28;20109;-49
2022/10/18 07:48:19;;;;;;;27.42;12.38;;;8.90;99.90;;;;;;5030026;28;20469;-47
2022/10/18 07:50:44;;;;;;;9.85;2.03;;;9.00;99.90;;;;;;5030232;28;20033;-48
2022/10/18 07:53:10;;;;;;;8.45;2.15;;;9.10;99.90;;;;;;5030465;28;20021;-47
2022/10/18 07:55:35;;;;;;;6.72;1.50;;;9.20;99.90;;;;;;5034155;28;20439;-47
2022/10/18 07:58:01;;;;;;;8.48;1.90;;;9.30;99.90;;;;;;5034206;28;20040;-49
2022/10/18 08:00:27;;;;;;;8.20;1.90;;;9.40;99.90;;;;;;5033941;28;20099;-49
2022/10/18 08:02:57;;;;;;;5.03;1.70;;;9.60;99.90;;;;;;5034068;28;20060;-47
2022/10/18 08:05:23;;;;;;;6.07;2.30;;;9.60;99.90;;;;;;5033675;28;20073;-48
2022/10/18 08:07:48;;;;;;;13.43;4.03;;;9.60;99.90;;;;;;5034011;28;20050;-51
2022/10/18 08:10:14;;;;;;;10.60;3.45;;;9.60;99.90;;;;;;5033852;28;20072;-49
2022/10/18 08:12:40;;;;;;;6.90;3.40;;;9.60;99.90;;;;;;5034031;28;20639;-50
2022/10/18 08:15:06;;;;;;;6.68;3.50;;;9.70;99.90;;;;;;5033821;28;20464;-49
2022/10/18 08:17:32;;;;;;;11.63;4.18;;;9.80;99.90;;;;;;5033189;28;20060;-50
2022/10/18 08:19:58;;;;;;;12.20;4.07;;;9.90;99.90;;;;;;5033159;28;20097;-47
2022/10/18 08:22:23;;;;;;;8.68;4.30;;;10.00;99.90;;;;;;5033127;28;20029;-53
2022/10/18 08:24:49;;;;;;;13.65;3.20;;;10.30;99.90;;;;;;5033036;28;20081;-54
2022/10/18 08:27:15;;;;;;;6.35;2.10;;;10.50;99.90;;;;;;5033001;28;20029;-48
2022/10/18 08:29:40;;;;;;;13.60;2.55;;;11.00;99.90;;;;;;5033128;28;20045;-54
2022/10/18 08:32:09;;;;;;;5.80;1.40;;;11.50;99.90;;;;;;5032891;28;20562;-52
2022/10/18 08:34:35;;;;;;;13.65;3.28;;;12.90;99.90;;;;;;5033625;28;20038;-53
2022/10/18 08:37:01;;;;;;;4.35;1.33;;;14.90;99.90;;;;;;5033321;28;20124;-52
2022/10/18 08:39:27;;;;;;;8.40;1.60;;;16.70;99.90;;;;;;5033182;28;20072;-51
2022/10/18 08:42:30;;;;;;;7.97;1.70;;;18.60;99.90;;;;;;5032623;28;20025;-48
2022/10/18 08:44:56;;;;;;;4.50;1.05;;;20.10;99.90;;;;;;5029401;28;20033;-52
2022/10/18 08:47:44;;;;;;;4.93;1.30;;;21.60;99.90;;;;;;5033116;28;20021;-57
2022/10/18 08:50:17;;;;;;;9.32;1.98;;;22.80;99.90;;;;;;5032571;28;20057;-53
2022/10/18 08:52:51;;;;;;;7.95;1.85;;;23.70;99.90;;;;;;5032355;28;20584;-54
2022/10/18 08:55:35;;;;;;;14.15;1.77;;;24.60;99.10;;;;;;5031643;28;20025;-53
2022/10/18 08:58:04;;;;;;;9.60;2.30;;;25.10;97.80;;;;;;5031838;28;20095;-53
2022/10/18 09:00:33;;;;;;;19.77;2.25;;;25.80;94.50;;;;;;5031650;28;20559;-51
2022/10/18 09:03:14;;;;;;;7.70;1.42;;;25.40;94.20;;;;;;5031401;28;20029;-54
2022/10/18 09:05:42;;;;;;;13.05;2.78;;;25.80;93.20;;;;;;5032393;28;20025;-49
2022/10/18 09:08:16;;;;;;;10.18;2.38;;;26.70;92.70;;;;;;5032266;28;20253;-52
2022/10/18 09:11:16;;;;;;;9.55;1.95;;;27.40;91.50;;;;;;5031888;28;20392;-49
2022/10/18 09:14:12;;;;;;;9.30;2.22;;;27.30;88.50;;;;;;5032920;28;20021;-50
2022/10/18 09:17:02;;;;;;;10.15;2.80;;;27.10;88.00;;;;;;5030006;28;20029;-47
2022/10/18 09:20:03;;;;;;;9.73;2.30;;;27.20;87.00;;;;;;5031068;28;20026;-47
2022/10/18 09:23:02;;;;;;;10.07;2.38;;;27.10;88.00;;;;;;5031662;28;20033;-49
2022/10/18 09:25:44;;;;;;;12.38;2.47;;;27.60;83.50;;;;;;4976663;28;20041;-48
2022/10/18 09:28:35;;;;;;;10.27;1.90;;;28.30;84.70;;;;;;5031941;28;20472;-51
2022/10/18 09:31:26;;;;;;;7.30;2.08;;;29.20;83.20;;;;;;5031867;28;20480;-54
2022/10/18 09:34:23;;;;;;;11.88;1.80;;;29.70;81.60;;;;;;5000263;28;20393;-48
2022/10/18 09:36:51;;;;;;;8.25;2.00;;;29.50;76.00;;;;;;5025464;28;20022;-47
2022/10/18 09:39:28;;;;;;;7.40;2.17;;;29.20;75.10;;;;;;5023963;28;20099;-47
2022/10/18 09:42:18;;;;;;;6.57;1.63;;;28.60;74.40;;;;;;5032195;28;20758;-48
2022/10/18 09:44:50;;;;;;;8.98;2.15;;;29.80;77.10;;;;;;5032206;28;20037;-50
2022/10/18 09:47:20;;;;;;;9.10;1.85;;;29.30;74.90;;;;;;5031688;28;20021;-49
2022/10/18 09:49:53;;;;;;;7.75;2.35;;;29.80;72.20;;;;;;5025399;28;20037;-47
2022/10/18 09:52:30;;;;;;;8.55;2.15;;;29.50;70.50;;;;;;5025034;28;20034;-53
2022/10/18 09:55:00;;;;;;;8.43;2.00;;;29.60;72.40;;;;;;5029566;28;20495;-46
2022/10/18 09:57:32;;;;;;;9.38;2.20;;;29.90;67.80;;;;;;5030365;28;20112;-47
2022/10/18 09:59:59;;;;;;;8.30;2.20;;;29.80;69.30;;;;;;5027296;28;20087;-50
2022/10/18 10:02:24;;;;;;;7.57;2.10;;;29.70;66.40;;;;;;5028356;28;20093;-46
2022/10/18 10:04:52;;;;;;;9.77;2.00;;;30.00;69.80;;;;;;5031818;28;20033;-48
2022/10/18 10:07:33;;;;;;;7.85;2.00;;;31.40;66.40;;;;;;5031649;28;20044;-50
2022/10/18 10:10:12;;;;;;;7.22;2.00;;;31.40;65.80;;;;;;5031246;28;20030;-48
2022/10/18 10:12:39;;;;;;;9.82;2.33;;;31.30;63.50;;;;;;5030271;28;20075;-52
2022/10/18 10:15:24;;;;;;;6.60;1.83;;;31.60;62.30;;;;;;5031904;28;20079;-49
2022/10/18 10:17:57;;;;;;;8.75;2.15;;;30.90;62.40;;;;;;5025179;28;20048;-49
2022/10/18 10:20:29;;;;;;;6.82;1.48;;;31.10;63.60;;;;;;5029462;28;20496;-50
2022/10/18 10:23:07;;;;;;;7.60;1.90;;;31.90;65.20;;;;;;5026085;28;20511;-49
2022/10/18 10:25:36;;;;;;;7.03;2.00;;;31.00;60.60;;;;;;5029883;28;20150;-50
2022/10/18 10:28:10;;;;;;;7.18;1.92;;;31.40;63.00;;;;;;5028244;28;20013;-49
2022/10/18 10:30:37;;;;;;;7.88;1.80;;;32.00;63.20;;;;;;5030425;28;20030;-49
2022/10/18 10:33:04;;;;;;;8.13;1.92;;;31.60;60.90;;;;;;5022399;28;20394;-50
2022/10/18 10:35:38;;;;;;;5.65;1.77;;;32.30;62.40;;;;;;5030391;28;20356;-45
2022/10/18 10:38:04;;;;;;;10.10;2.20;;;32.50;63.10;;;;;;5026375;28;20033;-52
2022/10/18 10:40:44;;;;;;;8.70;2.08;;;32.40;58.80;;;;;;5030604;28;20025;-51
2022/10/18 10:43:21;;;;;;;7.78;2.05;;;31.30;58.60;;;;;;5030621;28;20124;-53
2022/10/18 10:46:00;;;;;;;9.38;2.00;;;30.90;61.30;;;;;;5030499;28;20088;-50
2022/10/18 10:48:30;;;;;;;9.10;2.13;;;31.10;61.40;;;;;;5030330;28;20536;-52
2022/10/18 10:51:05;;;;;;;12.50;2.10;;;29.30;62.60;;;;;;5030560;28;20041;-55
2022/10/18 10:53:39;;;;;;;6.22;2.03;;;29.80;62.90;;;;;;5030325;28;20484;-47
2022/10/18 10:56:12;;;;;;;6.68;2.00;;;29.00;66.20;;;;;;5030404;28;20404;-50
2022/10/18 10:58:39;;;;;;;9.18;2.10;;;28.10;65.40;;;;;;5030354;28;20392;-55
2022/10/18 11:01:32;;;;;;;10.35;2.50;;;28.50;68.10;;;;;;5030228;28;20029;-49
2022/10/18 11:04:01;;;;;;;11.18;2.30;;;28.60;67.70;;;;;;5022825;28;20061;-48
2022/10/18 11:06:40;;;;;;;8.57;2.22;;;28.30;65.50;;;;;;5026154;28;20045;-48
2022/10/18 11:09:18;;;;;;;8.60;1.67;;;27.80;67.90;;;;;;5029607;28;20032;-51
2022/10/18 11:11:51;;;;;;;9.20;2.08;;;28.00;69.40;;;;;;5030010;28;20072;-48
2022/10/18 11:14:28;;;;;;;10.20;2.05;;;28.40;68.00;;;;;;5029292;28;20025;-51
2022/10/18 11:17:20;;;;;;;8.75;2.70;;;28.10;68.40;;;;;;5026068;28;20025;-49
2022/10/18 11:20:17;;;;;;;10.65;2.90;;;27.70;67.80;;;;;;5025219;28;20121;-52
2022/10/18 11:23:00;;;;;;;9.23;2.95;;;27.70;69.30;;;;;;5028859;28;20040;-47
2022/10/18 11:25:56;;;;;;;7.50;2.05;;;27.80;70.90;;;;;;5029364;28;20049;-50
2022/10/18 11:29:00;;;;;;;8.60;2.40;;;27.20;73.80;;;;;;5026301;28;20036;-52
2022/10/18 11:31:44;;;;;;;7.95;2.20;;;26.90;73.20;;;;;;5033334;28;20439;-47
2022/10/18 11:34:47;;;;;;;8.32;2.30;;;26.70;72.30;;;;;;5032868;28;20048;-47
2022/10/18 11:37:47;;;;;;;5.88;1.60;;;26.60;74.30;;;;;;5023916;28;20223;-48
2022/10/18 11:40:30;;;;;;;10.15;2.67;;;26.90;77.20;;;;;;5029943;28;20468;-47
2022/10/18 11:43:04;;;;;;;9.38;2.30;;;27.00;73.50;;;;;;5024593;28;20120;-46
2022/10/18 11:46:00;;;;;;;10.35;2.22;;;26.90;72.30;;;;;;5026190;28;20546;-47
2022/10/18 11:48:52;;;;;;;10.52;2.78;;;27.00;73.50;;;;;;5030124;28;20400;-50
2022/10/18 11:51:31;;;;;;;9.05;2.25;;;27.60;71.90;;;;;;5033116;28;20022;-49
2022/10/18 11:54:22;;;;;;;9.48;3.10;;;28.80;70.80;;;;;;5026697;28;20014;-51
2022/10/18 11:57:25;;;;;;;7.57;2.00;;;29.30;69.60;;;;;;5029413;28;20036;-47
2022/10/18 11:59:59;;;;;;;8.98;2.30;;;29.70;67.70;;;;;;5030782;28;20021;-48
2022/10/18 12:03:03;;;;;;;8.50;2.03;;;29.40;65.00;;;;;;5032375;28;20053;-47
2022/10/18 12:05:30;;;;;;;8.27;2.35;;;29.80;66.10;;;;;;5032940;28;20084;-47
2022/10/18 12:07:58;;;;;;;8.95;2.10;;;29.60;64.40;;;;;;5031181;28;20024;-48
2022/10/18 12:10:24;;;;;;;7.20;1.97;;;29.60;65.30;;;;;;5029820;28;20468;-50
2022/10/18 12:13:02;;;;;;;10.70;2.35;;;30.00;64.80;;;;;;5033027;28;20479;-48
2022/10/18 12:15:32;;;;;;;10.97;1.97;;;29.70;63.80;;;;;;5033239;28;20049;-47
2022/10/18 12:18:04;;;;;;;6.88;1.85;;;29.60;64.60;;;;;;5033070;28;20029;-49
2022/10/18 12:20:40;;;;;;;4.88;1.60;;;30.30;60.90;;;;;;5027334;28;20029;-48
2022/10/18 12:23:11;;;;;;;7.07;1.80;;;30.10;60.80;;;;;;5031019;28;20428;-47
2022/10/18 12:25:40;;;;;;;11.65;2.20;;;28.40;64.00;;;;;;5032173;28;20052;-46
2022/10/18 12:28:54;;;;;;;8.63;1.88;;;27.40;64.40;;;;;;5031661;28;20025;-55
2022/10/18 12:31:37;;;;;;;9.38;1.83;;;25.40;65.20;;;;;;5031036;28;20052;-49
2022/10/18 12:34:21;;;;;;;7.65;2.40;;;24.80;69.80;;;;;;5028254;28;20115;-46
2022/10/18 12:37:09;;;;;;;5.85;1.38;;;24.50;72.40;;;;;;5030952;28;20053;-49
2022/10/18 12:39:46;;;;;;;7.57;1.70;;;23.70;71.30;;;;;;5030425;28;20033;-51
2022/10/18 12:42:40;;;;;;;9.50;1.75;;;23.50;75.20;;;;;;5028714;28;20021;-46
2022/10/18 12:45:26;;;;;;;7.15;1.63;;;23.00;74.80;;;;;;5028925;28;20038;-47
2022/10/18 12:47:54;;;;;;;8.52;1.80;;;22.40;75.80;;;;;;5030838;28;20051;-46
2022/10/18 12:50:33;;;;;;;5.68;1.40;;;22.20;78.30;;;;;;5031072;28;20013;-49
2022/10/18 12:53:05;;;;;;;8.15;1.90;;;22.50;82.90;;;;;;5031884;28;20034;-49
2022/10/18 12:55:38;;;;;;;9.85;2.13;;;22.60;81.30;;;;;;5032074;28;20018;-46
2022/10/18 12:58:26;;;;;;;7.07;2.00;;;22.70;81.00;;;;;;5031317;28;20116;-53
2022/10/18 13:00:54;;;;;;;25.65;4.07;;;22.30;79.50;;;;;;5029204;28;20021;-46
2022/10/18 13:03:26;;;;;;;11.25;2.22;;;22.30;83.90;;;;;;5031453;28;20026;-46
2022/10/18 13:05:51;;;;;;;10.70;2.25;;;22.20;82.60;;;;;;5031539;28;20022;-49
2022/10/18 13:08:26;;;;;;;6.35;1.95;;;21.70;82.30;;;;;;5031947;28;20026;-50
2022/10/18 13:11:10;;;;;;;18.90;3.00;;;21.60;83.10;;;;;;5031354;28;20025;-46
2022/10/18 13:13:51;;;;;;;11.82;1.83;;;21.90;86.00;;;;;;5032104;28;20045;-51
2022/10/18 13:16:38;;;;;;;8.50;2.15;;;21.80;84.50;;;;;;5031856;28;20013;-46